Time;durP1;ratioP1;P1;durP2;ratioP2;P2;SDS_P1;SDS_P2;PMS_P1;PMS_P2;Temp;Humidity;BMP_temperature;BMP_pressure;BME280_temperature;BME280_humidity;BME280_pressure;Samples;Min_cycle;Max_cycle;Signal;HPM_P1;HPM_P2
2024/01/14 00:02:09;;;;;;;23.90;13.82;;;8.50;67.00;10.20;101341.00;;;;5050786;28;20202;-76
2024/01/14 00:04:38;;;;;;;20.50;12.35;;;8.50;67.00;10.20;101339.00;;;;5045153;28;20195;-75
2024/01/14 00:07:05;;;;;;;26.98;14.25;;;8.50;67.70;10.20;101335.00;;;;5054006;28;20207;-75
2024/01/14 00:09:32;;;;;;;23.90;13.55;;;8.50;67.10;10.20;101344.00;;;;5036209;28;20199;-75
2024/01/14 00:11:59;;;;;;;20.83;13.10;;;8.50;67.10;10.20;101342.00;;;;5053309;28;20199;-75
2024/01/14 00:14:26;;;;;;;25.75;14.32;;;8.50;67.10;10.20;101344.00;;;;5048853;28;20219;-75
2024/01/14 00:16:53;;;;;;;23.98;14.20;;;8.50;67.00;10.20;101348.00;;;;5053745;28;20309;-74
2024/01/14 00:19:20;;;;;;;27.40;13.77;;;8.50;67.00;10.20;101343.00;;;;5044795;28;20209;-75
2024/01/14 00:21:49;;;;;;;23.25;13.98;;;8.50;67.00;10.20;101340.00;;;;5030353;28;20205;-76
2024/01/14 00:24:17;;;;;;;24.85;14.20;;;8.40;67.00;10.20;101325.00;;;;5030769;28;20219;-75
2024/01/14 00:26:44;;;;;;;22.00;13.07;;;8.50;67.00;10.20;101346.00;;;;5027986;28;20204;-75
2024/01/14 00:29:11;;;;;;;23.85;13.35;;;8.50;67.00;10.20;101333.00;;;;5027608;28;20196;-75
2024/01/14 00:31:38;;;;;;;22.65;12.00;;;8.50;67.10;10.20;101322.00;;;;5030006;28;20195;-76
2024/01/14 00:34:05;;;;;;;22.08;12.95;;;8.50;67.00;10.20;101319.00;;;;5030803;28;20216;-76
2024/01/14 00:36:32;;;;;;;24.95;12.75;;;8.50;67.10;10.20;101315.00;;;;5030123;28;20240;-76
2024/01/14 00:39:00;;;;;;;25.35;13.73;;;8.50;67.00;10.20;101314.00;;;;5027683;28;20199;-76
2024/01/14 00:41:27;;;;;;;22.83;13.50;;;8.50;67.70;10.20;101311.00;;;;5029214;28;20204;-76
2024/01/14 00:43:54;;;;;;;24.80;13.52;;;8.50;67.00;10.20;101308.00;;;;5029393;28;20753;-77
2024/01/14 00:46:21;;;;;;;22.73;13.40;;;8.50;67.00;10.20;101306.00;;;;5029324;28;20535;-77
2024/01/14 00:48:48;;;;;;;24.05;13.55;;;8.50;67.00;10.20;101304.00;;;;5029496;28;20270;-75
2024/01/14 00:51:15;;;;;;;24.67;13.63;;;8.50;67.00;10.20;101300.00;;;;5031335;28;20199;-75
2024/01/14 00:53:42;;;;;;;21.77;13.52;;;8.50;67.10;10.20;101299.00;;;;5031918;28;20202;-75
2024/01/14 00:56:11;;;;;;;24.50;14.20;;;8.50;67.10;10.30;101292.00;;;;5032529;28;20220;-76
2024/01/14 00:58:39;;;;;;;22.92;13.27;;;8.50;67.10;10.30;101295.00;;;;5034067;28;20597;-75
2024/01/14 01:01:06;;;;;;;28.05;13.73;;;8.50;67.10;10.30;101298.00;;;;5041211;28;20292;-75
2024/01/14 01:03:33;;;;;;;22.48;12.85;;;8.50;67.10;10.30;101296.00;;;;5052644;28;20191;-75
2024/01/14 01:06:01;;;;;;;24.90;14.63;;;8.40;67.10;10.30;101285.00;;;;5042648;28;20199;-75
2024/01/14 01:08:28;;;;;;;24.42;13.27;;;8.50;67.80;10.30;101284.00;;;;5029874;28;20228;-75
2024/01/14 01:10:55;;;;;;;22.90;13.80;;;8.50;67.10;10.30;101280.00;;;;5048388;28;20620;-76
2024/01/14 01:13:23;;;;;;;19.85;12.32;;;8.50;67.10;10.30;101278.00;;;;5051453;28;20653;-76
2024/01/14 01:15:50;;;;;;;21.25;13.07;;;8.50;67.10;10.30;101281.00;;;;5051511;28;20223;-76
2024/01/14 01:18:17;;;;;;;22.92;13.98;;;8.50;67.10;10.30;101285.00;;;;5036428;28;20200;-76
2024/01/14 01:20:45;;;;;;;18.95;12.23;;;8.50;67.10;10.30;101267.00;;;;5042702;28;20586;-75
2024/01/14 01:23:12;;;;;;;23.08;13.05;;;8.50;67.10;10.40;101272.00;;;;5046022;28;20323;-75
2024/01/14 01:25:39;;;;;;;21.23;12.50;;;8.50;67.10;10.40;101274.00;;;;5019815;28;20203;-75
2024/01/14 01:28:06;;;;;;;21.98;13.38;;;8.50;67.10;10.40;101270.00;;;;5034636;28;20228;-76
2024/01/14 01:30:38;;;;;;;22.98;13.27;;;8.50;67.10;10.30;101277.00;;;;5044078;28;20200;-75
2024/01/14 01:33:05;;;;;;;21.40;13.82;;;8.50;67.70;10.40;101264.00;;;;5021268;28;20203;-75
2024/01/14 01:35:32;;;;;;;23.20;13.05;;;8.50;66.90;10.30;101268.00;;;;5031865;28;20243;-75
2024/01/14 01:37:59;;;;;;;21.92;13.73;;;8.50;66.90;10.30;101261.00;;;;5029739;28;20195;-76
2024/01/14 01:40:27;;;;;;;21.40;12.85;;;8.50;67.00;10.30;101269.00;;;;5036526;28;20683;-75
2024/01/14 01:42:54;;;;;;;22.45;12.98;;;8.50;66.90;10.30;101257.00;;;;5051106;28;20206;-75
2024/01/14 01:45:21;;;;;;;24.05;13.73;;;8.50;66.90;10.30;101260.00;;;;5042176;28;20653;-75
2024/01/14 01:47:49;;;;;;;20.60;13.60;;;8.50;66.90;10.30;101251.00;;;;5052396;28;20208;-75
2024/01/14 01:50:17;;;;;;;22.42;13.45;;;8.50;66.90;10.30;101249.00;;;;5036754;28;20216;-76
2024/01/14 01:52:45;;;;;;;23.67;14.02;;;8.50;67.00;10.30;101246.00;;;;5047371;28;20202;-76
2024/01/14 01:55:13;;;;;;;24.90;14.02;;;8.50;67.00;10.30;101247.00;;;;5040418;28;20220;-75
2024/01/14 01:57:41;;;;;;;21.50;12.40;;;8.50;67.10;10.30;101243.00;;;;5038399;28;20199;-75
2024/01/14 02:00:09;;;;;;;19.33;12.02;;;8.50;67.10;10.30;101236.00;;;;5036435;28;20199;-75
2024/01/14 02:02:42;;;;;;;21.83;12.90;;;8.50;67.00;10.30;101237.00;;;;5037487;28;20327;-75
2024/01/14 02:05:12;;;;;;;20.17;12.70;;;8.50;67.00;10.30;101236.00;;;;5032861;28;20200;-75
2024/01/14 02:07:40;;;;;;;20.90;12.90;;;8.50;67.00;10.30;101240.00;;;;5030948;28;20199;-76
2024/01/14 02:10:08;;;;;;;20.95;13.00;;;8.50;66.90;10.30;101234.00;;;;5035848;28;20207;-75
2024/01/14 02:12:35;;;;;;;20.67;13.45;;;8.50;67.00;10.30;101233.00;;;;5045844;28;20213;-75
2024/01/14 02:15:02;;;;;;;21.33;13.18;;;8.50;67.00;10.30;101228.00;;;;5039143;28;20693;-75
2024/01/14 02:17:29;;;;;;;21.13;12.50;;;8.50;66.90;10.30;101232.00;;;;5031176;28;20199;-76
2024/01/14 02:19:56;;;;;;;19.73;12.82;;;8.50;66.80;10.30;101227.00;;;;5041390;28;20192;-76
2024/01/14 02:22:34;;;;;;;18.42;11.23;;;8.50;66.80;10.20;101219.00;;;;5048849;28;20221;-76
2024/01/14 02:25:03;;;;;;;19.80;11.75;;;8.50;66.90;10.30;101232.00;;;;5039509;28;20669;-75
2024/01/14 02:27:31;;;;;;;21.30;12.60;;;8.50;66.80;10.30;101230.00;;;;5032755;28;20286;-75
2024/01/14 02:30:00;;;;;;;23.75;14.07;;;8.50;66.80;10.30;101225.00;;;;5039533;28;20223;-75
2024/01/14 02:32:27;;;;;;;17.83;11.20;;;8.50;66.80;10.30;101227.00;;;;5022423;28;20197;-76
2024/01/14 02:34:54;;;;;;;22.60;12.75;;;8.50;66.80;10.30;101222.00;;;;5031249;28;20216;-75
2024/01/14 02:37:21;;;;;;;21.35;12.98;;;8.50;66.80;10.40;101219.00;;;;5033916;28;20195;-76
2024/01/14 02:39:48;;;;;;;20.15;12.57;;;8.50;66.80;10.40;101213.00;;;;5036511;28;20187;-75
2024/01/14 02:42:16;;;;;;;23.50;13.73;;;8.50;66.80;10.30;101222.00;;;;5030229;28;20258;-75
2024/01/14 02:44:43;;;;;;;19.35;12.00;;;8.50;66.80;10.30;101216.00;;;;5031197;28;20203;-76
2024/01/14 02:47:10;;;;;;;22.67;13.18;;;8.40;66.70;10.30;101203.00;;;;5033462;28;20202;-75
2024/01/14 02:49:37;;;;;;;19.95;13.02;;;8.40;66.70;10.30;101216.00;;;;5036336;28;20643;-75
2024/01/14 02:52:04;;;;;;;21.60;14.30;;;8.40;66.70;10.30;101201.00;;;;5043130;28;20200;-76
2024/01/14 02:54:31;;;;;;;23.65;14.50;;;8.40;66.70;10.20;101201.00;;;;5029931;28;20203;-76
2024/01/14 02:56:58;;;;;;;24.23;13.95;;;8.40;66.70;10.20;101194.00;;;;5038413;28;20720;-76
2024/01/14 02:59:26;;;;;;;21.30;13.68;;;8.40;66.70;10.20;101202.00;;;;5038188;28;20188;-75
2024/01/14 03:01:53;;;;;;;25.60;15.55;;;8.40;66.70;10.20;101192.00;;;;5036948;28;20195;-75
2024/01/14 03:04:20;;;;;;;23.10;14.40;;;8.40;66.70;10.20;101188.00;;;;5031293;28;20192;-76
2024/01/14 03:06:47;;;;;;;22.67;14.05;;;8.40;66.60;10.20;101183.00;;;;5015518;28;20201;-75
2024/01/14 03:09:15;;;;;;;25.67;14.73;;;8.40;66.70;10.10;101184.00;;;;5033502;28;20212;-75
2024/01/14 03:11:42;;;;;;;24.40;15.82;;;8.30;66.70;10.10;101181.00;;;;5036108;28;20278;-75
2024/01/14 03:14:09;;;;;;;25.00;16.45;;;8.30;66.60;10.10;101180.00;;;;5034626;28;20228;-75
2024/01/14 03:16:37;;;;;;;28.13;15.30;;;8.30;66.70;10.00;101181.00;;;;5038073;28;20694;-75
2024/01/14 03:19:04;;;;;;;26.13;16.45;;;8.30;66.60;10.10;101186.00;;;;5037778;28;20200;-76
2024/01/14 03:21:31;;;;;;;25.63;15.70;;;8.30;66.60;10.00;101181.00;;;;5039439;28;20569;-75
2024/01/14 03:23:58;;;;;;;31.38;17.00;;;8.20;66.60;10.00;101179.00;;;;5034939;28;20535;-76
2024/01/14 03:26:25;;;;;;;22.73;14.85;;;8.20;66.60;10.00;101175.00;;;;5034755;28;20206;-76
2024/01/14 03:28:52;;;;;;;22.40;14.20;;;8.20;66.50;9.90;101167.00;;;;5037721;28;20576;-76
2024/01/14 03:31:19;;;;;;;24.23;15.65;;;8.20;66.50;9.90;101165.00;;;;5033938;28;20713;-75
2024/01/14 03:33:48;;;;;;;22.10;14.65;;;8.20;66.60;9.90;101163.00;;;;5046946;28;20595;-76
2024/01/14 03:36:18;;;;;;;24.23;15.52;;;8.10;66.50;9.90;101158.00;;;;5047584;28;20246;-76
2024/01/14 03:38:45;;;;;;;24.83;16.38;;;8.10;66.60;9.90;101161.00;;;;5040900;28;20646;-76
2024/01/14 03:41:13;;;;;;;25.00;15.18;;;8.10;66.60;9.90;101156.00;;;;5041924;28;20204;-76
2024/01/14 03:43:40;;;;;;;23.67;14.68;;;8.10;66.70;9.90;101149.00;;;;5041527;28;20219;-76
2024/01/14 03:46:07;;;;;;;25.42;15.55;;;8.10;66.70;9.90;101144.00;;;;5033944;28;20291;-76
2024/01/14 03:48:34;;;;;;;26.95;16.58;;;8.10;66.70;9.90;101142.00;;;;5038685;28;20200;-76
2024/01/14 03:51:02;;;;;;;24.52;15.63;;;8.00;66.60;9.80;101144.00;;;;5039320;28;20203;-76
2024/01/14 03:53:29;;;;;;;27.42;16.65;;;8.00;66.60;9.80;101134.00;;;;5031760;28;20196;-76
2024/01/14 03:55:56;;;;;;;25.45;16.27;;;8.00;66.60;9.80;101128.00;;;;5028537;28;20224;-76
2024/01/14 03:58:23;;;;;;;27.30;16.80;;;8.00;66.70;9.80;101129.00;;;;5030078;28;20192;-76
2024/01/14 04:00:50;;;;;;;28.17;16.35;;;8.00;66.70;9.80;101138.00;;;;5040865;28;20214;-76
2024/01/14 04:03:17;;;;;;;24.55;16.40;;;8.00;66.70;9.80;101132.00;;;;5049939;28;20207;-75
2024/01/14 04:05:45;;;;;;;25.25;15.57;;;8.00;66.70;9.80;101125.00;;;;5041546;28;20203;-76
2024/01/14 04:08:13;;;;;;;23.67;15.23;;;8.00;66.60;9.80;101130.00;;;;5032907;28;20198;-76
2024/01/14 04:10:40;;;;;;;26.38;15.98;;;8.00;66.70;9.80;101120.00;;;;5040655;28;20200;-75
2024/01/14 04:13:07;;;;;;;26.02;16.20;;;7.90;66.70;9.80;101124.00;;;;5039640;28;20196;-75
2024/01/14 04:15:35;;;;;;;28.52;16.38;;;7.90;66.70;9.80;101118.00;;;;5032827;28;20217;-75
2024/01/14 04:18:02;;;;;;;25.45;15.13;;;7.90;66.70;9.80;101115.00;;;;5042273;28;20192;-75
2024/01/14 04:20:29;;;;;;;25.65;16.25;;;7.90;66.70;9.80;101114.00;;;;5036126;28;20660;-75
2024/01/14 04:22:57;;;;;;;26.23;15.60;;;7.90;66.70;9.80;101100.00;;;;5047776;28;20226;-75
2024/01/14 04:25:25;;;;;;;25.73;15.43;;;8.00;66.70;9.80;101105.00;;;;5039628;28;20208;-75
2024/01/14 04:27:52;;;;;;;28.50;18.23;;;7.90;67.30;9.80;101104.00;;;;5051406;28;20200;-75
2024/01/14 04:30:19;;;;;;;24.67;16.13;;;7.90;66.60;9.80;101091.00;;;;5021082;28;20654;-75
2024/01/14 04:32:46;;;;;;;29.02;17.20;;;7.90;66.60;9.70;101108.00;;;;5036295;28;20196;-75
2024/01/14 04:35:14;;;;;;;27.05;17.20;;;7.90;66.60;9.70;101089.00;;;;5036989;28;20608;-76
2024/01/14 04:37:41;;;;;;;27.08;16.55;;;7.90;66.50;9.70;101090.00;;;;5039108;28;20208;-76
2024/01/14 04:40:09;;;;;;;28.63;16.88;;;7.90;66.60;9.70;101091.00;;;;5043042;28;20641;-76
2024/01/14 04:42:38;;;;;;;27.92;16.60;;;7.90;66.60;9.70;101088.00;;;;5052022;28;20234;-75
2024/01/14 04:45:07;;;;;;;27.30;17.25;;;7.90;66.60;9.70;101091.00;;;;5052949;28;20644;-76
2024/01/14 04:47:35;;;;;;;26.85;16.85;;;7.80;66.60;9.70;101087.00;;;;5022787;28;20207;-75
2024/01/14 04:50:02;;;;;;;29.45;17.65;;;7.90;66.70;9.70;101089.00;;;;5035964;28;20204;-75
2024/01/14 04:52:29;;;;;;;28.40;17.88;;;7.80;66.60;9.60;101085.00;;;;5042744;28;20200;-75
2024/01/14 04:54:56;;;;;;;27.13;17.10;;;7.80;66.60;9.60;101091.00;;;;5053178;28;20213;-76
2024/01/14 04:57:23;;;;;;;29.77;18.10;;;7.80;66.60;9.60;101091.00;;;;5034990;28;20219;-75
2024/01/14 04:59:52;;;;;;;28.08;16.50;;;7.80;66.60;9.60;101088.00;;;;5035181;28;20665;-75
2024/01/14 05:02:19;;;;;;;25.20;16.10;;;7.80;66.60;9.60;101081.00;;;;5037851;28;20286;-75
2024/01/14 05:04:46;;;;;;;27.15;16.38;;;7.80;66.70;9.60;101087.00;;;;5053121;28;20191;-75
2024/01/14 05:07:13;;;;;;;26.85;16.80;;;7.80;66.80;9.60;101077.00;;;;5021822;28;20682;-75
2024/01/14 05:09:40;;;;;;;30.73;18.30;;;7.80;66.70;9.60;101075.00;;;;5029597;28;20196;-75
2024/01/14 05:12:07;;;;;;;29.90;17.40;;;7.80;66.70;9.60;101085.00;;;;5035435;28;20752;-75
2024/01/14 05:14:34;;;;;;;28.20;17.55;;;7.80;66.60;9.50;101075.00;;;;5052943;28;20192;-75
2024/01/14 05:17:03;;;;;;;29.83;17.17;;;7.70;66.60;9.50;101076.00;;;;5032527;28;20697;-76
2024/01/14 05:19:30;;;;;;;25.83;15.95;;;7.70;66.60;9.50;101073.00;;;;5037835;28;20199;-75
2024/01/14 05:21:57;;;;;;;27.95;15.43;;;7.70;66.70;9.50;101066.00;;;;5036128;28;20201;-75
2024/01/14 05:24:24;;;;;;;26.05;15.35;;;7.70;66.70;9.50;101061.00;;;;5040276;28;20204;-75
2024/01/14 05:26:51;;;;;;;27.35;15.90;;;7.70;66.70;9.50;101066.00;;;;5035439;28;20278;-75
2024/01/14 05:29:18;;;;;;;28.77;16.15;;;7.70;66.70;9.50;101055.00;;;;5037673;28;20800;-75
2024/01/14 05:31:45;;;;;;;29.35;16.08;;;7.70;66.70;9.50;101064.00;;;;5031920;28;20200;-75
2024/01/14 05:34:13;;;;;;;25.05;15.57;;;7.70;66.70;9.50;101051.00;;;;5033829;28;20283;-75
2024/01/14 05:36:40;;;;;;;24.23;14.85;;;7.70;66.70;9.50;101051.00;;;;5030140;28;20266;-76
2024/01/14 05:39:07;;;;;;;25.77;15.60;;;7.70;66.70;9.50;101051.00;;;;5031733;28;20649;-76
2024/01/14 05:41:35;;;;;;;25.52;15.00;;;7.70;66.70;9.50;101042.00;;;;5031932;28;20280;-76
2024/01/14 05:44:02;;;;;;;26.17;16.35;;;7.70;66.70;9.50;101044.00;;;;5029463;28;20224;-76
2024/01/14 05:46:29;;;;;;;27.08;15.20;;;7.70;66.70;9.50;101040.00;;;;5026586;28;20218;-76
2024/01/14 05:48:56;;;;;;;24.52;15.48;;;7.70;66.70;9.50;101033.00;;;;5026815;28;20311;-76
2024/01/14 05:51:24;;;;;;;24.30;14.82;;;7.70;66.70;9.50;101036.00;;;;5028904;28;20571;-76
2024/01/14 05:53:51;;;;;;;27.75;15.50;;;7.70;66.70;9.50;101027.00;;;;5025842;28;20200;-76
2024/01/14 05:56:26;;;;;;;24.92;15.27;;;7.70;66.60;9.40;101037.00;;;;5024395;28;20259;-76
2024/01/14 05:58:53;;;;;;;24.23;15.30;;;7.70;66.60;9.50;101037.00;;;;5024991;28;20198;-76
2024/01/14 06:01:20;;;;;;;22.98;15.20;;;7.70;66.50;9.40;101040.00;;;;5028980;28;20207;-76
2024/01/14 06:03:47;;;;;;;24.40;15.65;;;7.70;66.50;9.50;101038.00;;;;5036636;28;20203;-76
2024/01/14 06:06:14;;;;;;;25.00;15.38;;;7.70;66.50;9.40;101034.00;;;;5037267;28;20200;-76
2024/01/14 06:08:44;;;;;;;26.60;16.23;;;7.70;66.60;9.40;101025.00;;;;5029940;28;20322;-76
2024/01/14 06:11:13;;;;;;;25.33;15.63;;;7.60;66.60;9.50;101021.00;;;;5029066;28;20192;-76
2024/01/14 06:13:41;;;;;;;22.33;14.50;;;7.60;67.30;9.40;101017.00;;;;5031149;28;20192;-76
2024/01/14 06:16:09;;;;;;;23.85;15.00;;;7.60;66.60;9.40;101011.00;;;;5028877;28;20220;-76
2024/01/14 06:18:36;;;;;;;26.38;16.83;;;7.60;66.60;9.40;101004.00;;;;5045934;28;20286;-76
2024/01/14 06:21:03;;;;;;;25.13;15.50;;;7.60;66.60;9.40;100991.00;;;;5047080;28;20199;-76
2024/01/14 06:23:30;;;;;;;27.52;16.85;;;7.60;66.60;9.40;100992.00;;;;5040163;28;20709;-75
2024/01/14 06:25:59;;;;;;;23.92;15.32;;;7.60;66.60;9.40;100995.00;;;;5022377;28;20738;-76
2024/01/14 06:28:27;;;;;;;25.33;16.25;;;7.60;66.70;9.40;100987.00;;;;5011406;28;20216;-75
2024/01/14 06:30:54;;;;;;;25.80;16.42;;;7.60;66.70;9.40;100987.00;;;;5035520;28;20206;-76
2024/01/14 06:33:21;;;;;;;24.52;15.57;;;7.60;66.80;9.40;100983.00;;;;5046805;28;20207;-76
2024/01/14 06:35:48;;;;;;;27.13;16.50;;;7.60;66.80;9.40;100983.00;;;;5047427;28;20223;-76
2024/01/14 06:38:15;;;;;;;26.20;16.73;;;7.60;66.80;9.40;100980.00;;;;5041392;28;20286;-76
2024/01/14 06:40:42;;;;;;;24.88;15.60;;;7.60;66.80;9.40;100968.00;;;;5046125;28;20266;-76
2024/01/14 06:43:10;;;;;;;25.75;16.42;;;7.60;66.80;9.40;100975.00;;;;5049165;28;20199;-75
2024/01/14 06:45:37;;;;;;;26.88;17.02;;;7.60;66.80;9.40;100971.00;;;;5033950;28;20198;-75
2024/01/14 06:48:06;;;;;;;26.02;16.70;;;7.60;66.80;9.40;100966.00;;;;5034231;28;20204;-75
2024/01/14 06:50:33;;;;;;;23.55;15.05;;;7.60;66.90;9.40;100974.00;;;;5034144;28;20196;-76
2024/01/14 06:53:00;;;;;;;26.17;16.50;;;7.60;66.80;9.40;100970.00;;;;5035563;28;20196;-77
2024/01/14 06:55:27;;;;;;;24.13;15.18;;;7.60;66.80;9.40;100967.00;;;;5032193;28;20199;-76
2024/01/14 06:57:54;;;;;;;26.35;16.17;;;7.60;66.80;9.40;100961.00;;;;5035465;28;20220;-76
2024/01/14 07:00:22;;;;;;;23.88;14.88;;;7.60;66.80;9.40;100963.00;;;;5040435;28;20199;-75
2024/01/14 07:02:49;;;;;;;26.75;16.35;;;7.60;66.80;9.40;100964.00;;;;5052793;28;20699;-76
2024/01/14 07:05:16;;;;;;;27.00;16.42;;;7.60;66.80;9.40;100954.00;;;;5053829;28;20199;-76
2024/01/14 07:07:44;;;;;;;24.90;15.43;;;7.60;66.80;9.40;100960.00;;;;5033194;28;20207;-76
2024/01/14 07:10:11;;;;;;;24.85;14.93;;;7.60;66.90;9.40;100965.00;;;;5034936;28;20197;-76
2024/01/14 07:12:38;;;;;;;28.50;17.08;;;7.60;66.80;9.40;100964.00;;;;5046236;28;20638;-75
2024/01/14 07:15:06;;;;;;;27.38;16.40;;;7.60;66.80;9.40;100967.00;;;;5044559;28;20298;-76
2024/01/14 07:17:35;;;;;;;26.25;16.48;;;7.60;66.80;9.40;100961.00;;;;5035851;28;20243;-76
2024/01/14 07:20:02;;;;;;;27.88;16.25;;;7.60;66.80;9.40;100962.00;;;;5054922;28;20196;-76
2024/01/14 07:22:29;;;;;;;26.88;15.70;;;7.60;66.80;9.40;100967.00;;;;5050396;28;20743;-75
2024/01/14 07:24:56;;;;;;;27.13;17.60;;;7.60;67.40;9.30;100969.00;;;;5051690;28;20196;-76
2024/01/14 07:27:23;;;;;;;27.00;15.52;;;7.60;66.80;9.40;100972.00;;;;5037669;28;20657;-76
2024/01/14 07:29:50;;;;;;;27.35;16.73;;;7.60;66.80;9.30;100964.00;;;;5052142;28;20204;-76
2024/01/14 07:32:18;;;;;;;27.35;16.15;;;7.60;66.90;9.30;100959.00;;;;5033796;28;20212;-76
2024/01/14 07:34:47;;;;;;;26.73;16.58;;;7.50;66.90;9.30;100959.00;;;;5026178;28;20611;-76
2024/01/14 07:37:14;;;;;;;27.60;17.25;;;7.60;67.00;9.30;100969.00;;;;5040846;28;20227;-76
2024/01/14 07:39:41;;;;;;;27.90;17.13;;;7.60;67.00;9.40;100959.00;;;;5037192;28;20196;-74
2024/01/14 07:42:09;;;;;;;24.48;16.17;;;7.60;67.10;9.40;100965.00;;;;5043463;28;20203;-75
2024/01/14 07:44:36;;;;;;;30.73;17.83;;;7.60;67.10;9.40;100963.00;;;;5038335;28;20290;-74
2024/01/14 07:47:04;;;;;;;30.17;17.02;;;7.60;67.00;9.40;100954.00;;;;5031857;28;20673;-74
2024/01/14 07:49:31;;;;;;;30.30;16.77;;;7.60;67.00;9.40;100960.00;;;;5034441;28;20200;-74
2024/01/14 07:51:59;;;;;;;29.80;16.92;;;7.60;67.00;9.40;100969.00;;;;5034505;28;20297;-74
2024/01/14 07:54:26;;;;;;;25.25;15.70;;;7.60;67.10;9.40;100971.00;;;;5024164;28;20291;-74
2024/01/14 07:56:53;;;;;;;25.25;14.57;;;7.60;67.80;9.40;100966.00;;;;5023538;28;20224;-77
2024/01/14 07:59:23;;;;;;;27.50;15.73;;;7.60;67.10;9.40;100966.00;;;;5037276;28;20247;-77
2024/01/14 08:01:50;;;;;;;25.20;15.57;;;7.60;67.10;9.40;100974.00;;;;5031434;28;20196;-77
2024/01/14 08:04:18;;;;;;;29.08;17.77;;;7.60;67.10;9.40;100970.00;;;;5029591;28;20280;-80
2024/01/14 08:06:45;;;;;;;27.33;16.80;;;7.60;67.10;9.40;100967.00;;;;5030859;28;20207;-77
2024/01/14 08:09:14;;;;;;;26.33;16.38;;;7.60;67.10;9.40;100954.00;;;;5033931;28;20262;-77
2024/01/14 08:11:42;;;;;;;28.77;15.43;;;7.60;67.10;9.40;100955.00;;;;5033670;28;20599;-77
2024/01/14 08:14:09;;;;;;;30.05;16.00;;;7.60;67.10;9.40;100956.00;;;;5033841;28;20539;-76
2024/01/14 08:16:36;;;;;;;26.83;15.88;;;7.60;67.00;9.40;100957.00;;;;5031327;28;20242;-77
2024/01/14 08:19:03;;;;;;;26.83;16.50;;;7.60;67.00;9.40;100957.00;;;;5033297;28;20571;-77
2024/01/14 08:21:30;;;;;;;26.30;15.13;;;7.60;67.00;9.40;100957.00;;;;5032473;28;20207;-77
2024/01/14 08:23:57;;;;;;;25.92;15.35;;;7.60;67.00;9.40;100954.00;;;;5033240;28;20319;-78
2024/01/14 08:26:26;;;;;;;25.85;15.40;;;7.60;67.70;9.40;100954.00;;;;5032289;28;20223;-78
2024/01/14 08:28:53;;;;;;;25.77;15.50;;;7.60;67.00;9.40;100944.00;;;;5032011;28;20216;-77
2024/01/14 08:31:20;;;;;;;24.02;13.73;;;7.70;67.10;9.50;100939.00;;;;5037940;28;20214;-77
2024/01/14 08:33:48;;;;;;;25.08;14.73;;;7.60;67.00;9.50;100949.00;;;;5037906;28;20673;-77
2024/01/14 08:36:15;;;;;;;22.20;13.73;;;7.70;67.20;9.50;100949.00;;;;5049952;28;20227;-79
2024/01/14 08:38:42;;;;;;;23.25;14.77;;;7.70;67.20;9.50;100949.00;;;;5034001;28;20259;-79
2024/01/14 08:41:09;;;;;;;26.48;14.40;;;7.70;67.20;9.50;100943.00;;;;5032086;28;20278;-79
2024/01/14 08:43:37;;;;;;;25.42;14.15;;;7.70;67.20;9.50;100933.00;;;;5032648;28;20734;-79
2024/01/14 08:46:05;;;;;;;24.13;14.27;;;7.70;67.10;9.50;100941.00;;;;5033272;28;20287;-79
2024/01/14 08:48:32;;;;;;;24.88;14.52;;;7.70;67.10;9.60;100928.00;;;;5033256;28;20208;-79
2024/01/14 08:51:01;;;;;;;23.40;15.30;;;7.70;67.10;9.60;100933.00;;;;5032483;28;20204;-79
2024/01/14 08:53:28;;;;;;;26.17;14.68;;;7.70;67.10;9.60;100918.00;;;;5032654;28;20654;-80
2024/01/14 08:55:55;;;;;;;21.80;14.20;;;7.70;67.10;9.60;100922.00;;;;5033061;28;20207;-79
2024/01/14 08:58:22;;;;;;;22.92;13.43;;;7.70;67.10;9.60;100914.00;;;;5032864;28;20216;-79
2024/01/14 09:00:50;;;;;;;20.80;12.73;;;7.70;67.00;9.50;100920.00;;;;5031721;28;20222;-79
2024/01/14 09:03:17;;;;;;;22.35;12.95;;;7.70;67.00;9.50;100926.00;;;;5032206;28;20200;-78
2024/01/14 09:05:45;;;;;;;22.10;13.23;;;7.70;67.00;9.50;100922.00;;;;5032616;28;20200;-79
2024/01/14 09:08:13;;;;;;;23.17;11.95;;;7.80;67.00;9.50;100914.00;;;;5050763;28;20231;-78
2024/01/14 09:10:40;;;;;;;23.13;14.27;;;7.70;66.90;9.50;100912.00;;;;5035960;28;20212;-78
2024/01/14 09:13:07;;;;;;;25.17;13.82;;;7.70;66.90;9.50;100907.00;;;;5031711;28;20219;-78
2024/01/14 09:15:35;;;;;;;21.00;12.75;;;7.70;67.00;9.50;100903.00;;;;5033303;28;20192;-78
2024/01/14 09:18:04;;;;;;;23.25;14.40;;;7.70;67.70;9.50;100898.00;;;;5032198;28;20228;-80
2024/01/14 09:20:31;;;;;;;24.33;13.68;;;7.70;67.00;9.50;100893.00;;;;5029714;28;20658;-79
2024/01/14 09:22:58;;;;;;;24.83;13.30;;;7.80;67.10;9.60;100902.00;;;;5032468;28;20208;-79
2024/01/14 09:25:25;;;;;;;25.70;13.48;;;7.80;67.10;9.60;100883.00;;;;5031780;28;20760;-79
2024/01/14 09:27:52;;;;;;;26.85;14.10;;;7.80;67.10;9.60;100886.00;;;;5031999;28;20279;-79
2024/01/14 09:30:19;;;;;;;21.25;13.35;;;7.80;67.20;9.60;100876.00;;;;5029519;28;20646;-79
2024/01/14 09:32:46;;;;;;;22.05;13.27;;;7.80;67.20;9.60;100882.00;;;;5032017;28;20204;-79
2024/01/14 09:35:15;;;;;;;19.63;11.85;;;7.80;67.20;9.60;100887.00;;;;5035928;28;20217;-79
2024/01/14 09:37:42;;;;;;;21.00;12.32;;;7.80;67.20;9.70;100890.00;;;;5032196;28;20228;-79
2024/01/14 09:40:10;;;;;;;23.90;13.77;;;7.90;67.50;9.70;100888.00;;;;5029597;28;20196;-80
2024/01/14 09:42:44;;;;;;;22.40;13.93;;;7.90;67.20;9.60;100890.00;;;;5034858;28;20200;-80
2024/01/14 09:45:12;;;;;;;26.63;15.63;;;7.80;67.10;9.70;100889.00;;;;5032389;28;20262;-80
2024/01/14 09:47:42;;;;;;;26.30;14.90;;;7.90;67.20;9.70;100893.00;;;;5032221;28;20205;-77
2024/01/14 09:50:10;;;;;;;26.85;16.17;;;7.90;67.10;9.70;100881.00;;;;5029500;28;20219;-77
2024/01/14 09:52:42;;;;;;;25.75;14.30;;;7.90;67.20;9.70;100877.00;;;;5030583;28;20192;-78
2024/01/14 09:55:10;;;;;;;27.10;15.65;;;7.90;67.10;9.70;100880.00;;;;5025921;28;20208;-77
2024/01/14 09:57:43;;;;;;;26.90;15.40;;;7.90;67.00;9.70;100881.00;;;;5030860;28;20220;-77
2024/01/14 10:00:12;;;;;;;27.60;15.93;;;7.90;67.10;9.70;100884.00;;;;5030207;28;20657;-77
2024/01/14 10:02:39;;;;;;;27.58;16.20;;;7.90;67.00;9.70;100892.00;;;;5031360;28;20188;-77
2024/01/14 10:05:08;;;;;;;27.83;17.25;;;7.90;67.00;9.70;100906.00;;;;5031557;28;20204;-77
2024/01/14 10:07:38;;;;;;;28.83;16.20;;;7.90;67.00;9.60;100902.00;;;;5029750;28;20199;-78
2024/01/14 10:10:08;;;;;;;30.13;15.85;;;7.90;67.00;9.60;100902.00;;;;5026827;28;20193;-78
2024/01/14 10:12:36;;;;;;;23.77;14.30;;;7.90;67.00;9.60;100903.00;;;;5029691;28;20192;-78
2024/01/14 10:15:04;;;;;;;22.20;14.02;;;7.90;67.00;9.60;100909.00;;;;5025399;28;20206;-79
2024/01/14 10:17:33;;;;;;;26.17;15.13;;;7.90;67.00;9.70;100895.00;;;;5023330;28;20251;-79
2024/01/14 10:20:00;;;;;;;26.08;14.85;;;7.90;67.00;9.60;100901.00;;;;5023550;28;20645;-79
2024/01/14 10:22:26;;;;;;;24.20;14.68;;;7.90;67.00;9.60;100891.00;;;;5023476;28;20220;-78
2024/01/14 10:24:57;;;;;;;24.02;15.35;;;7.90;67.10;9.60;100887.00;;;;5026660;28;20287;-78
2024/01/14 10:27:26;;;;;;;27.85;15.77;;;7.90;67.20;9.60;100872.00;;;;5031663;28;20203;-79
2024/01/14 10:29:54;;;;;;;23.58;15.13;;;7.90;67.20;9.70;100869.00;;;;5030464;28;20203;-79
2024/01/14 10:32:21;;;;;;;27.30;17.52;;;7.90;67.20;9.70;100863.00;;;;5029410;28;20196;-78
2024/01/14 10:34:48;;;;;;;26.40;16.15;;;7.90;67.40;9.70;100853.00;;;;5029221;28;20643;-78
2024/01/14 10:37:15;;;;;;;25.65;15.00;;;7.90;67.30;9.70;100862.00;;;;5033120;28;20261;-79
2024/01/14 10:39:42;;;;;;;25.75;15.70;;;7.90;68.00;9.70;100848.00;;;;5028691;28;20197;-78
2024/01/14 10:42:11;;;;;;;23.73;14.38;;;7.90;67.40;9.70;100856.00;;;;5031245;28;20690;-77
2024/01/14 10:44:38;;;;;;;22.58;13.57;;;7.90;67.30;9.70;100837.00;;;;5030982;28;20214;-78
2024/01/14 10:47:11;;;;;;;24.42;14.35;;;7.90;67.30;9.70;100846.00;;;;5047252;28;20657;-78